createdAt,value
2022-11-28T00:01:03.849Z,4.18
2022-11-28T00:03:30.873Z,4.07
2022-11-28T00:06:02.242Z,4.10
2022-11-28T00:08:30.142Z,5.88
2022-11-28T00:10:58.930Z,4.20
2022-11-28T00:13:27.407Z,4.03
2022-11-28T00:15:58.170Z,3.80
2022-11-28T00:18:25.223Z,4.10
2022-11-28T00:20:52.039Z,4.25
2022-11-28T00:23:18.843Z,3.85
2022-11-28T00:25:45.490Z,4.05
2022-11-28T00:28:12.234Z,3.97
2022-11-28T00:30:40.273Z,3.97
2022-11-28T00:33:07.267Z,3.70
2022-11-28T00:35:33.885Z,3.88
2022-11-28T00:38:00.491Z,4.05
2022-11-28T00:40:27.236Z,4.20
2022-11-28T00:42:53.832Z,4.00
2022-11-28T00:45:23.222Z,3.72
2022-11-28T00:47:51.833Z,3.60
2022-11-28T00:50:19.545Z,3.97
2022-11-28T00:52:46.370Z,3.97
2022-11-28T00:55:13.072Z,4.25
2022-11-28T00:57:39.709Z,3.95
2022-11-28T01:00:08.403Z,4.07
2022-11-28T01:02:35.134Z,4.63
2022-11-28T01:05:03.560Z,3.80
2022-11-28T01:07:33.430Z,3.95
2022-11-28T01:10:00.278Z,3.67
2022-11-28T01:12:27.038Z,4.07
2022-11-28T01:14:53.693Z,3.55
2022-11-28T01:17:20.468Z,4.35
2022-11-28T01:19:47.090Z,3.95
2022-11-28T01:22:15.211Z,4.18
2022-11-28T01:24:42.047Z,4.07
2022-11-28T01:27:08.864Z,4.28
2022-11-28T01:29:35.393Z,4.22
2022-11-28T01:32:02.083Z,4.18
2022-11-28T01:34:29.142Z,4.53
2022-11-28T01:36:55.730Z,4.57
2022-11-28T01:39:25.716Z,4.57
2022-11-28T01:41:52.337Z,4.65
2022-11-28T01:44:56.582Z,4.28
2022-11-28T01:47:27.929Z,4.88
2022-11-28T01:49:55.424Z,5.00
2022-11-28T01:52:23.472Z,5.25
2022-11-28T01:54:55.411Z,5.10
2022-11-28T01:57:25.191Z,5.40
2022-11-28T02:00:02.779Z,5.15
2022-11-28T02:02:44.105Z,5.53
2022-11-28T02:05:11.028Z,5.32
2022-11-28T02:07:38.320Z,6.32
2022-11-28T02:10:10.459Z,6.25
2022-11-28T02:13:02.913Z,6.22
2022-11-28T02:15:49.071Z,6.32
2022-11-28T02:18:30.808Z,6.35
2022-11-28T02:21:20.378Z,6.18
2022-11-28T02:24:20.632Z,5.55
2022-11-28T02:27:16.957Z,5.95
2022-11-28T02:30:10.930Z,5.50
2022-11-28T02:32:54.946Z,6.40
2022-11-28T02:35:26.730Z,6.00
2022-11-28T02:38:02.279Z,5.87
2022-11-28T02:40:36.939Z,5.90
2022-11-28T02:43:14.537Z,5.70
2022-11-28T02:45:50.404Z,6.03
2022-11-28T02:48:26.736Z,6.00
2022-11-28T02:50:58.683Z,5.90
2022-11-28T02:53:28.520Z,6.45
2022-11-28T02:55:57.088Z,5.93
2022-11-28T02:58:23.761Z,6.03
2022-11-28T03:00:51.462Z,6.43
2022-11-28T03:03:33.205Z,5.63
2022-11-28T03:06:03.641Z,6.28
2022-11-28T03:08:42.517Z,5.45
2022-11-28T03:11:19.940Z,5.90
2022-11-28T03:13:54.577Z,6.45
2022-11-28T03:16:27.910Z,6.28
2022-11-28T03:19:03.956Z,6.85
2022-11-28T03:21:39.327Z,5.90
2022-11-28T03:24:12.414Z,6.15
2022-11-28T03:26:46.869Z,6.20
2022-11-28T03:29:18.605Z,6.20
2022-11-28T03:31:50.062Z,5.93
2022-11-28T03:34:23.509Z,6.57
2022-11-28T03:36:53.760Z,6.57
2022-11-28T03:39:23.719Z,6.90
2022-11-28T03:41:55.719Z,6.53
2022-11-28T03:44:27.367Z,7.15
2022-11-28T03:46:56.841Z,6.63
2022-11-28T03:49:29.481Z,6.70
2022-11-28T03:54:29.607Z,6.60
2022-11-28T03:57:01.723Z,7.13
2022-11-28T03:59:33.384Z,7.40
2022-11-28T04:02:06.341Z,7.40
2022-11-28T04:04:42.008Z,7.03
2022-11-28T04:07:21.360Z,7.63
2022-11-28T04:09:54.566Z,7.65
2022-11-28T04:12:31.764Z,7.45
2022-11-28T04:15:03.814Z,7.60
2022-11-28T04:17:35.370Z,7.47
2022-11-28T04:20:08.770Z,7.55
2022-11-28T04:22:42.555Z,7.97
2022-11-28T04:25:13.953Z,7.25
2022-11-28T04:27:47.918Z,7.70
2022-11-28T04:30:14.782Z,7.72
2022-11-28T04:32:48.050Z,7.85
2022-11-28T04:35:25.541Z,7.85
2022-11-28T04:37:54.111Z,7.45
2022-11-28T04:40:24.718Z,7.55
2022-11-28T04:42:55.687Z,7.15
2022-11-28T04:45:27.405Z,7.90
2022-11-28T04:47:54.891Z,7.93
2022-11-28T04:50:28.433Z,7.60
2022-11-28T04:53:00.481Z,7.68
2022-11-28T04:55:33.487Z,7.65
2022-11-28T04:58:08.183Z,7.03
2022-11-28T05:00:36.582Z,6.22
2022-11-28T05:03:04.652Z,7.82
2022-11-28T05:05:42.653Z,6.93
2022-11-28T05:08:09.438Z,7.43
2022-11-28T05:10:36.296Z,7.53
2022-11-28T05:13:03.083Z,7.30
2022-11-28T05:15:29.789Z,6.22
2022-11-28T05:17:56.359Z,6.97
2022-11-28T05:20:24.780Z,7.35
2022-11-28T05:22:55.383Z,7.00
2022-11-28T05:25:25.194Z,6.65
2022-11-28T05:27:51.891Z,6.30
2022-11-28T05:30:21.295Z,6.53
2022-11-28T05:32:47.861Z,6.50
2022-11-28T05:35:14.635Z,6.50
2022-11-28T05:37:43.497Z,6.45
2022-11-28T05:40:12.097Z,6.45
2022-11-28T05:42:38.782Z,6.22
2022-11-28T05:45:06.286Z,5.65
2022-11-28T05:47:33.513Z,5.90
2022-11-28T05:50:00.048Z,5.65
2022-11-28T05:52:28.409Z,5.30
2022-11-28T05:54:55.243Z,4.75
2022-11-28T05:57:23.483Z,5.38
2022-11-28T05:59:50.297Z,5.05
2022-11-28T06:02:17.078Z,4.57
2022-11-28T06:04:44.215Z,4.50
2022-11-28T06:07:11.093Z,4.72
2022-11-28T06:09:37.595Z,4.85
2022-11-28T06:12:04.297Z,4.68
2022-11-28T06:14:32.759Z,4.68
2022-11-28T06:16:59.555Z,5.15
2022-11-28T06:19:26.357Z,4.88
2022-11-28T06:21:53.159Z,4.90
2022-11-28T06:24:19.989Z,5.20
2022-11-28T06:26:46.631Z,4.85
2022-11-28T06:29:14.336Z,4.65
2022-11-28T06:31:42.372Z,5.32
2022-11-28T06:34:12.192Z,5.30
2022-11-28T06:36:38.906Z,4.78
2022-11-28T06:39:06.097Z,5.40
2022-11-28T06:41:33.751Z,5.50
2022-11-28T06:44:00.308Z,5.85
2022-11-28T06:46:27.224Z,6.25
2022-11-28T06:48:55.389Z,6.57
2022-11-28T06:51:22.158Z,6.97
2022-11-28T06:53:49.314Z,7.40
2022-11-28T06:56:18.112Z,7.65
2022-11-28T06:58:45.650Z,7.40
2022-11-28T07:01:14.533Z,8.10
2022-11-28T07:03:41.703Z,7.55
2022-11-28T07:06:10.158Z,7.28
2022-11-28T07:08:37.000Z,7.28
2022-11-28T07:11:09.068Z,7.57
2022-11-28T07:13:36.271Z,7.57
2022-11-28T07:16:02.915Z,7.05
2022-11-28T07:18:29.825Z,7.25
2022-11-28T07:20:56.740Z,7.70
2022-11-28T07:23:24.958Z,7.03
2022-11-28T07:25:51.725Z,7.55
2022-11-28T07:28:21.997Z,7.72
2022-11-28T07:30:57.523Z,7.15
2022-11-28T07:33:24.137Z,7.32
2022-11-28T07:35:50.801Z,7.03
2022-11-28T07:38:17.406Z,6.97
2022-11-28T07:40:45.321Z,7.00
2022-11-28T07:43:11.950Z,6.85
2022-11-28T07:45:59.525Z,6.35
2022-11-28T07:48:25.769Z,6.07
2022-11-28T07:50:52.342Z,6.30
2022-11-28T07:53:19.161Z,6.15
2022-11-28T07:55:47.068Z,6.63
2022-11-28T07:58:13.725Z,6.53
2022-11-28T08:00:41.126Z,6.45
2022-11-28T08:03:07.782Z,6.22
2022-11-28T08:05:34.421Z,6.25
2022-11-28T08:08:01.139Z,6.22
2022-11-28T08:10:27.705Z,6.45
2022-11-28T08:12:55.623Z,6.55
2022-11-28T08:15:22.192Z,6.38
2022-11-28T08:17:48.829Z,6.35
2022-11-28T08:20:15.565Z,6.75
2022-11-28T08:22:42.202Z,6.53
2022-11-28T08:25:09.774Z,9.45
2022-11-28T08:27:36.397Z,9.18
2022-11-28T08:30:05.271Z,7.97
2022-11-28T08:32:31.890Z,6.70
2022-11-28T08:34:58.569Z,7.35
2022-11-28T08:37:25.160Z,7.43
2022-11-28T08:39:51.734Z,7.13
2022-11-28T08:42:18.401Z,6.78
2022-11-28T08:44:45.026Z,6.60
2022-11-28T08:47:13.078Z,6.68
2022-11-28T08:49:39.633Z,7.20
2022-11-28T08:52:06.797Z,7.07
2022-11-28T08:54:33.565Z,7.00
2022-11-28T08:57:00.220Z,7.18
2022-11-28T08:59:26.905Z,7.22
2022-11-28T09:01:54.039Z,7.30
2022-11-28T09:04:22.486Z,6.65
2022-11-28T09:06:49.193Z,7.00
2022-11-28T09:09:19.532Z,6.65
2022-11-28T09:11:46.446Z,7.28
2022-11-28T09:14:13.347Z,6.97
2022-11-28T09:16:40.878Z,6.93
2022-11-28T09:19:07.572Z,7.00
2022-11-28T09:21:35.827Z,7.07
2022-11-28T09:24:02.366Z,7.20
2022-11-28T09:26:28.989Z,6.70
2022-11-28T09:28:55.764Z,5.50
2022-11-28T09:31:23.202Z,6.30
2022-11-28T09:33:51.065Z,6.78
2022-11-28T09:36:19.767Z,6.28
2022-11-28T09:38:49.205Z,6.47
2022-11-28T09:41:30.025Z,5.80
2022-11-28T09:44:01.632Z,5.95
2022-11-28T09:46:32.781Z,6.35
2022-11-28T09:49:03.160Z,6.15
2022-11-28T09:51:34.549Z,5.63
2022-11-28T09:54:12.365Z,6.35
2022-11-28T09:56:39.340Z,5.93
2022-11-28T09:59:12.998Z,6.13
2022-11-28T10:01:48.036Z,6.40
2022-11-28T10:04:22.047Z,6.00
2022-11-28T10:06:58.476Z,6.22
2022-11-28T10:09:38.412Z,6.85
2022-11-28T10:12:21.955Z,6.38
2022-11-28T10:15:08.571Z,6.43
2022-11-28T10:17:46.398Z,5.93
2022-11-28T10:20:20.783Z,6.70
2022-11-28T10:22:52.015Z,6.65
2022-11-28T10:25:24.817Z,7.13
2022-11-28T10:27:52.073Z,6.88
2022-11-28T10:30:22.837Z,6.72
2022-11-28T10:32:56.009Z,6.35
2022-11-28T10:35:38.751Z,6.72
2022-11-28T10:38:11.584Z,6.60
2022-11-28T10:40:44.448Z,6.65
2022-11-28T10:43:22.581Z,6.50
2022-11-28T10:46:01.360Z,6.50
2022-11-28T10:48:41.252Z,6.60
2022-11-28T10:51:19.857Z,6.85
2022-11-28T10:53:58.438Z,7.55
2022-11-28T10:56:37.643Z,7.10
2022-11-28T10:59:14.187Z,7.97
2022-11-28T11:01:44.602Z,7.05
2022-11-28T11:04:18.661Z,7.50
2022-11-28T11:07:08.124Z,7.50
2022-11-28T11:09:38.003Z,7.60
2022-11-28T11:12:12.307Z,8.23
2022-11-28T11:14:39.557Z,7.82
2022-11-28T11:17:06.423Z,8.13
2022-11-28T11:19:35.630Z,8.38
2022-11-28T11:22:05.945Z,8.55
2022-11-28T11:24:32.663Z,9.32
2022-11-28T11:27:07.062Z,8.63
2022-11-28T11:29:36.744Z,8.32
2022-11-28T11:32:06.441Z,7.82
2022-11-28T11:34:37.553Z,8.07
2022-11-28T11:37:30.048Z,9.10
2022-11-28T11:39:56.808Z,9.10
2022-11-28T11:42:26.987Z,8.75
2022-11-28T11:44:54.239Z,9.15
2022-11-28T11:47:40.704Z,9.30
2022-11-28T11:50:17.340Z,9.55
2022-11-28T11:52:44.326Z,10.43
2022-11-28T11:55:13.681Z,10.15
2022-11-28T11:57:46.109Z,9.95
2022-11-28T12:00:17.904Z,10.23
2022-11-28T12:02:47.054Z,10.18
2022-11-28T12:05:16.250Z,10.65
2022-11-28T12:07:54.254Z,10.40
2022-11-28T12:10:24.995Z,11.07
2022-11-28T12:12:53.337Z,11.30
2022-11-28T12:15:30.256Z,11.75
2022-11-28T12:18:12.247Z,12.68
2022-11-28T12:20:52.290Z,12.18
2022-11-28T12:23:30.178Z,12.90
2022-11-28T12:26:01.427Z,12.82
2022-11-28T12:28:43.296Z,13.25
2022-11-28T12:31:17.916Z,14.97
2022-11-28T12:33:57.097Z,14.35
2022-11-28T12:36:29.343Z,14.45
2022-11-28T12:39:03.079Z,13.77
2022-11-28T12:41:47.796Z,14.52
2022-11-28T12:44:27.695Z,14.38
2022-11-28T12:47:03.124Z,14.77
2022-11-28T12:49:39.802Z,15.80
2022-11-28T12:52:22.612Z,15.57
2022-11-28T12:57:33.596Z,15.82
2022-11-28T13:00:08.620Z,15.88
2022-11-28T13:02:49.791Z,15.73
2022-11-28T13:05:34.820Z,15.85
2022-11-28T13:08:20.245Z,17.05
2022-11-28T13:10:53.437Z,17.33
2022-11-28T13:13:24.463Z,16.40
2022-11-28T13:16:04.239Z,17.92
2022-11-28T13:18:40.105Z,17.25
2022-11-28T13:21:19.490Z,17.25
2022-11-28T13:23:55.928Z,19.25
2022-11-28T13:26:38.399Z,17.40
2022-11-28T13:29:16.935Z,17.38
2022-11-28T13:31:57.344Z,17.20
2022-11-28T13:34:29.432Z,17.80
2022-11-28T13:39:54.484Z,15.70
2022-11-28T13:45:32.025Z,15.30
2022-11-28T13:51:31.487Z,16.08
2022-11-28T13:54:34.086Z,15.93
2022-11-28T13:57:10.723Z,15.95
2022-11-28T13:59:38.565Z,16.13
2022-11-28T14:02:23.299Z,16.05
2022-11-28T14:04:51.579Z,16.30
2022-11-28T14:07:28.959Z,15.05
2022-11-28T14:10:18.356Z,15.68
2022-11-28T14:12:55.537Z,15.52
2022-11-28T14:15:29.708Z,16.30
2022-11-28T14:18:47.922Z,15.32
2022-11-28T14:21:16.502Z,15.23
2022-11-28T14:23:52.120Z,16.38
2022-11-28T14:26:25.150Z,15.55
2022-11-28T14:28:53.612Z,15.93
2022-11-28T14:31:32.698Z,17.00
2022-11-28T14:34:02.443Z,16.05
2022-11-28T14:36:32.879Z,15.77
2022-11-28T14:39:04.780Z,17.45
2022-11-28T14:41:31.615Z,15.53
2022-11-28T14:44:32.686Z,15.65
2022-11-28T14:47:13.383Z,14.50
2022-11-28T14:49:40.308Z,15.75
2022-11-28T14:52:39.644Z,14.52
2022-11-28T14:55:21.680Z,15.38
2022-11-28T14:58:00.199Z,15.10
2022-11-28T15:00:31.748Z,14.80
2022-11-28T15:03:13.986Z,14.52
2022-11-28T15:05:45.361Z,14.75
2022-11-28T15:08:36.894Z,14.65
2022-11-28T15:11:17.808Z,14.45
2022-11-28T15:14:01.401Z,13.68
2022-11-28T15:16:30.431Z,13.90
2022-11-28T15:19:01.662Z,14.85
2022-11-28T15:21:28.784Z,13.35
2022-11-28T15:23:57.827Z,14.02
2022-11-28T15:26:29.602Z,14.00
2022-11-28T15:29:09.829Z,13.10
2022-11-28T15:31:38.001Z,13.13
2022-11-28T15:34:08.900Z,13.38
2022-11-28T15:36:38.513Z,13.02
2022-11-28T15:39:24.501Z,12.93
2022-11-28T15:41:51.578Z,13.25
2022-11-28T15:44:18.600Z,13.52
2022-11-28T15:46:45.824Z,12.77
2022-11-28T15:49:26.754Z,13.45
2022-11-28T15:51:55.147Z,12.63
2022-11-28T15:54:32.990Z,13.32
2022-11-28T15:57:00.884Z,13.32
2022-11-28T15:59:28.364Z,12.88
2022-11-28T16:01:59.490Z,12.80
2022-11-28T16:04:28.133Z,14.07
2022-11-28T16:06:57.540Z,12.63
2022-11-28T16:09:29.757Z,13.43
2022-11-28T16:11:59.113Z,12.95
2022-11-28T16:14:30.034Z,13.18
2022-11-28T16:16:58.160Z,12.32
2022-11-28T16:19:28.353Z,12.18
2022-11-28T16:21:58.794Z,13.35
2022-11-28T16:24:38.143Z,12.98
2022-11-28T16:27:06.223Z,14.50
2022-11-28T16:29:43.286Z,13.85
2022-11-28T16:32:20.540Z,14.15
2022-11-28T16:34:48.316Z,12.95
2022-11-28T16:37:20.015Z,14.48
2022-11-28T16:39:59.957Z,14.77
2022-11-28T16:42:26.926Z,14.38
2022-11-28T16:44:56.812Z,14.40
2022-11-28T16:47:29.110Z,14.38
2022-11-28T16:50:26.039Z,13.70
2022-11-28T16:52:53.817Z,15.40
2022-11-28T16:55:41.883Z,15.05
2022-11-28T16:58:19.185Z,15.15
2022-11-28T17:00:51.818Z,14.32
2022-11-28T17:06:06.128Z,15.60
2022-11-28T17:08:32.717Z,16.13
2022-11-28T17:11:00.867Z,15.63
2022-11-28T17:13:30.434Z,14.75
2022-11-28T17:15:58.693Z,15.13
2022-11-28T17:18:25.484Z,15.68
2022-11-28T17:20:52.346Z,14.85
2022-11-28T17:23:18.991Z,14.75
2022-11-28T17:25:45.544Z,14.75
2022-11-28T17:28:20.287Z,14.75
2022-11-28T17:30:48.325Z,16.15
2022-11-28T17:33:15.760Z,15.60
2022-11-28T17:35:44.377Z,15.55
2022-11-28T17:38:11.256Z,16.40
2022-11-28T17:40:38.312Z,16.70
2022-11-28T17:43:05.226Z,16.15
2022-11-28T17:45:35.449Z,16.80
2022-11-28T17:48:02.399Z,14.68
2022-11-28T17:50:30.183Z,15.55
2022-11-28T17:52:57.304Z,15.77
2022-11-28T17:55:23.944Z,16.38
2022-11-28T17:57:50.766Z,16.77
2022-11-28T18:00:17.909Z,15.68
2022-11-28T18:02:48.480Z,15.98
2022-11-28T18:05:17.559Z,15.90
2022-11-28T18:07:44.707Z,16.60
2022-11-28T18:10:13.949Z,16.10
2022-11-28T18:12:40.996Z,17.25
2022-11-28T18:15:08.656Z,17.63
2022-11-28T18:17:36.782Z,17.00
2022-11-28T18:20:07.077Z,17.00
2022-11-28T18:22:34.358Z,15.82
2022-11-28T18:25:01.383Z,15.80
2022-11-28T18:27:28.467Z,16.17
2022-11-28T18:29:55.333Z,16.08
2022-11-28T18:32:23.101Z,16.88
2022-11-28T18:34:50.297Z,15.95
2022-11-28T18:37:18.820Z,15.85
2022-11-28T18:39:46.288Z,16.35
2022-11-28T18:42:14.811Z,17.40
2022-11-28T18:44:41.923Z,16.30
2022-11-28T18:47:10.258Z,16.20
2022-11-28T18:49:37.074Z,16.00
2022-11-28T18:52:03.896Z,16.35
2022-11-28T18:54:35.580Z,15.98
2022-11-28T18:57:03.727Z,16.73
2022-11-28T18:59:30.685Z,17.17
2022-11-28T19:01:57.866Z,16.27
2022-11-28T19:04:25.550Z,16.75
2022-11-28T19:06:52.755Z,16.08
2022-11-28T19:09:20.787Z,16.77
2022-11-28T19:11:49.101Z,17.02
2022-11-28T19:14:18.545Z,15.88
2022-11-28T19:16:46.386Z,15.35
2022-11-28T19:19:16.695Z,16.52
2022-11-28T19:21:52.639Z,16.98
2022-11-28T19:24:20.846Z,15.90
2022-11-28T19:26:50.197Z,16.27
2022-11-28T19:29:19.408Z,15.95
2022-11-28T19:31:48.439Z,16.75
2022-11-28T19:34:16.887Z,17.00
2022-11-28T19:36:47.111Z,17.13
2022-11-28T19:39:16.607Z,16.40
2022-11-28T19:41:43.701Z,16.48
2022-11-28T19:44:12.710Z,16.17
2022-11-28T19:46:39.819Z,16.15
2022-11-28T19:49:15.771Z,14.95
2022-11-28T19:51:42.472Z,16.33
2022-11-28T19:54:09.356Z,16.38
2022-11-28T19:56:38.883Z,16.67
2022-11-28T19:59:06.087Z,17.10
2022-11-28T20:01:35.193Z,16.73
2022-11-28T20:04:02.013Z,15.98
2022-11-28T20:06:30.601Z,17.23
2022-11-28T20:09:00.617Z,17.67
2022-11-28T20:11:30.745Z,17.73
2022-11-28T20:14:01.155Z,17.63
2022-11-28T20:16:29.393Z,17.38
2022-11-28T20:19:00.073Z,18.10
2022-11-28T20:21:28.158Z,18.35
2022-11-28T20:23:57.215Z,17.10
2022-11-28T20:26:25.068Z,17.67
2022-11-28T20:28:54.176Z,17.40
2022-11-28T20:31:23.610Z,17.27
2022-11-28T20:33:51.581Z,18.63
2022-11-28T20:36:23.216Z,18.65
2022-11-28T20:38:52.433Z,18.58
2022-11-28T20:41:20.609Z,18.77
2022-11-28T20:43:49.096Z,18.15
2022-11-28T20:46:20.521Z,18.65
2022-11-28T20:48:48.482Z,18.27
2022-11-28T20:51:16.932Z,19.05
2022-11-28T20:53:45.874Z,20.05
2022-11-28T20:56:15.069Z,19.63
2022-11-28T20:58:41.803Z,20.40
2022-11-28T21:01:08.570Z,21.02
2022-11-28T21:03:35.286Z,20.40
2022-11-28T21:06:02.113Z,20.73
2022-11-28T21:08:28.833Z,20.77
2022-11-28T21:10:58.869Z,20.35
2022-11-28T21:13:25.654Z,20.20
2022-11-28T21:15:52.318Z,20.02
2022-11-28T21:18:19.128Z,21.48
2022-11-28T21:20:47.017Z,20.65
2022-11-28T21:23:16.041Z,19.77
2022-11-28T21:25:43.657Z,20.48
2022-11-28T21:28:13.079Z,20.90
2022-11-28T21:30:41.695Z,21.10
2022-11-28T21:33:09.907Z,21.65
2022-11-28T21:35:36.708Z,20.85
2022-11-28T21:38:03.515Z,20.50
2022-11-28T21:40:30.482Z,20.25
2022-11-28T21:42:58.027Z,20.63
2022-11-28T21:45:27.777Z,23.15
2022-11-28T21:47:54.574Z,21.33
2022-11-28T21:50:22.381Z,22.73
2022-11-28T21:52:49.384Z,23.08
2022-11-28T21:55:18.144Z,22.02
2022-11-28T21:57:45.482Z,22.40
2022-11-28T22:00:38.238Z,22.15
2022-11-28T22:03:05.857Z,21.42
2022-11-28T22:05:34.953Z,22.33
2022-11-28T22:08:02.098Z,21.83
2022-11-28T22:10:28.894Z,22.08
2022-11-28T22:12:58.194Z,22.98
2022-11-28T22:15:24.955Z,22.80
2022-11-28T22:17:52.650Z,22.50
2022-11-28T22:20:20.811Z,22.63
2022-11-28T22:22:48.016Z,22.73
2022-11-28T22:25:14.993Z,23.45
2022-11-28T22:27:42.214Z,22.85
2022-11-28T22:30:11.478Z,22.20
2022-11-28T22:32:38.327Z,22.10
2022-11-28T22:35:06.049Z,23.33
2022-11-28T22:37:34.361Z,22.95
2022-11-28T22:40:01.743Z,23.10
2022-11-28T22:42:28.406Z,23.88
2022-11-28T22:44:55.559Z,21.67
2022-11-28T22:47:22.550Z,21.85
2022-11-28T22:49:49.428Z,23.02
2022-11-28T22:52:19.252Z,22.63
2022-11-28T22:54:49.351Z,22.38
2022-11-28T22:57:18.526Z,22.80
2022-11-28T22:59:45.247Z,22.83
2022-11-28T23:02:12.339Z,22.77
2022-11-28T23:04:39.366Z,21.73
2022-11-28T23:07:06.482Z,21.90
2022-11-28T23:09:33.505Z,22.17
2022-11-28T23:12:05.554Z,21.83
2022-11-28T23:14:34.065Z,23.17
2022-11-28T23:17:01.006Z,22.65
2022-11-28T23:19:30.094Z,22.85
2022-11-28T23:21:57.725Z,22.58
2022-11-28T23:24:24.910Z,22.77
2022-11-28T23:26:52.875Z,24.92
2022-11-28T23:29:22.259Z,23.02
2022-11-28T23:31:49.336Z,22.75
2022-11-28T23:34:16.280Z,24.50
2022-11-28T23:36:46.502Z,25.25
2022-11-28T23:39:16.452Z,25.42
2022-11-28T23:41:44.052Z,25.15
2022-11-28T23:44:13.075Z,25.25
2022-11-28T23:46:41.799Z,26.05
2022-11-28T23:49:11.260Z,24.98
2022-11-28T23:51:41.517Z,25.92
2022-11-28T23:54:11.843Z,25.15
2022-11-28T23:56:39.708Z,26.10
2022-11-28T23:59:11.301Z,26.92
